createdAt,value
2023-02-16T00:02:02.635Z,99080.09
2023-02-16T00:07:04.607Z,99080.97
2023-02-16T00:12:37.790Z,99086.59
2023-02-16T00:17:39.665Z,99074.56
2023-02-16T00:22:41.548Z,99070.53
2023-02-16T00:27:43.641Z,99079.13
2023-02-16T00:32:46.376Z,99083.41
2023-02-16T00:37:49.362Z,99080.72
2023-02-16T00:42:51.235Z,99083.13
2023-02-16T00:47:54.402Z,99071.06
2023-02-16T00:52:59.610Z,99070.03
2023-02-16T00:58:15.271Z,99078.94
2023-02-16T01:03:24.763Z,99077.66
2023-02-16T01:08:46.289Z,99068.38
2023-02-16T01:13:50.106Z,99065.44
2023-02-16T01:18:52.671Z,99059.28
2023-02-16T01:23:54.555Z,99052.56
2023-02-16T01:28:56.391Z,99056.03
2023-02-16T01:33:58.218Z,99054.72
2023-02-16T01:39:01.354Z,99042.97
2023-02-16T01:44:10.809Z,99035.22
2023-02-16T01:49:18.158Z,99043.03
2023-02-16T01:54:43.145Z,99035.53
2023-02-16T01:59:44.924Z,99036.09
2023-02-16T02:05:13.647Z,99031.84
2023-02-16T02:10:35.306Z,99023.34
2023-02-16T02:15:37.329Z,99023.63
2023-02-16T02:21:36.785Z,99024.44
2023-02-16T02:27:18.228Z,99025.78
2023-02-16T02:32:44.324Z,99032.22
2023-02-16T02:37:58.756Z,99041.84
2023-02-16T02:43:22.923Z,99038.88
2023-02-16T02:48:30.811Z,99047.50
2023-02-16T02:53:36.490Z,99033.59
2023-02-16T02:58:59.541Z,99015.94
2023-02-16T03:04:04.527Z,99020.50
2023-02-16T03:09:11.604Z,99013.25
2023-02-16T03:14:30.597Z,99022.38
2023-02-16T03:19:51.144Z,99020.22
2023-02-16T03:25:11.751Z,99016.22
2023-02-16T03:30:16.029Z,99017.28
2023-02-16T03:35:18.245Z,99026.16
2023-02-16T03:40:30.449Z,99013.91
2023-02-16T03:45:39.789Z,99019.28
2023-02-16T03:50:41.620Z,99025.22
2023-02-16T03:55:46.042Z,99018.78
2023-02-16T04:00:48.425Z,99009.88
2023-02-16T04:05:50.458Z,99016.44
2023-02-16T04:10:52.286Z,99021.16
2023-02-16T04:15:54.078Z,99021.63
2023-02-16T04:20:55.871Z,99019.47
2023-02-16T04:25:57.665Z,99026.72
2023-02-16T04:30:59.595Z,99029.03
2023-02-16T04:36:01.451Z,99034.84
2023-02-16T04:41:03.415Z,99027.88
2023-02-16T04:46:05.581Z,99009.72
2023-02-16T04:51:07.406Z,99011.41
2023-02-16T04:56:13.503Z,99010.16
2023-02-16T05:01:19.985Z,99009.94
2023-02-16T05:06:22.278Z,99011.63
2023-02-16T05:11:42.876Z,99010.06
2023-02-16T05:16:45.773Z,99001.50
2023-02-16T05:21:47.579Z,99017.47
2023-02-16T05:26:49.378Z,99008.22
2023-02-16T05:31:51.330Z,99009.19
2023-02-16T05:36:53.709Z,99013.09
2023-02-16T05:41:55.568Z,99016.47
2023-02-16T05:46:57.393Z,99027.66
2023-02-16T05:51:59.296Z,99020.38
2023-02-16T05:57:01.111Z,99026.72
2023-02-16T06:02:02.916Z,99033.88
2023-02-16T06:07:04.761Z,99031.97
2023-02-16T06:12:06.830Z,99032.50
2023-02-16T06:17:08.639Z,99032.75
2023-02-16T06:22:10.459Z,99029.47
2023-02-16T06:27:12.473Z,99029.34
2023-02-16T06:32:14.411Z,99034.31
2023-02-16T06:37:16.278Z,99034.84
2023-02-16T06:42:18.304Z,99037.69
2023-02-16T06:47:20.111Z,99035.38
2023-02-16T06:52:22.114Z,99029.22
2023-02-16T06:57:23.929Z,99030.53
2023-02-16T07:02:25.810Z,99020.44
2023-02-16T07:07:28.073Z,99024.28
2023-02-16T07:12:30.062Z,99026.97
2023-02-16T07:17:31.957Z,99012.94
2023-02-16T07:22:33.981Z,99019.81
2023-02-16T07:27:35.800Z,99015.16
2023-02-16T07:32:38.326Z,99008.75
2023-02-16T07:37:40.175Z,99014.53
2023-02-16T07:42:41.999Z,99022.38
2023-02-16T07:47:44.295Z,99031.84
2023-02-16T07:52:46.133Z,99029.91
2023-02-16T07:57:49.636Z,99027.75
2023-02-16T08:02:51.792Z,99022.72
2023-02-16T08:07:53.967Z,99014.53
2023-02-16T08:12:56.178Z,99018.47
2023-02-16T08:17:58.926Z,99028.75
2023-02-16T08:23:00.781Z,99044.44
2023-02-16T08:28:03.424Z,99041.13
2023-02-16T08:33:05.984Z,99040.81
2023-02-16T08:38:09.154Z,99037.44
2023-02-16T08:43:10.935Z,99035.31
2023-02-16T08:48:12.767Z,99031.88
2023-02-16T08:53:15.489Z,99031.91
2023-02-16T08:58:17.255Z,99025.28
2023-02-16T09:03:19.312Z,99019.34
2023-02-16T09:08:21.900Z,99026.50
2023-02-16T09:13:23.685Z,99023.00
2023-02-16T09:18:26.554Z,99013.78
2023-02-16T09:23:28.772Z,99002.53
2023-02-16T09:28:30.885Z,99014.31
2023-02-16T09:33:35.012Z,99004.59
2023-02-16T09:38:37.931Z,99005.97
2023-02-16T09:43:49.545Z,98994.84
2023-02-16T09:48:52.932Z,98998.00
2023-02-16T09:54:14.351Z,98993.13
2023-02-16T09:59:35.481Z,98993.91
2023-02-16T10:04:50.342Z,98998.84
2023-02-16T10:09:55.382Z,98995.44
2023-02-16T10:15:03.174Z,98994.53
2023-02-16T10:20:40.536Z,99000.44
2023-02-16T10:25:54.937Z,99010.75
2023-02-16T10:31:13.092Z,98999.59
2023-02-16T10:36:51.932Z,98996.97
2023-02-16T10:42:13.546Z,98998.31
2023-02-16T10:47:25.032Z,98992.94
2023-02-16T10:52:32.749Z,98987.50
2023-02-16T10:57:34.672Z,98973.59
2023-02-16T11:02:44.525Z,98973.31
2023-02-16T11:07:54.879Z,98972.59
2023-02-16T11:12:57.926Z,98971.78
2023-02-16T11:18:08.314Z,98968.31
2023-02-16T11:23:15.038Z,98966.16
2023-02-16T11:28:27.042Z,98967.38
2023-02-16T11:33:29.389Z,98963.66
2023-02-16T11:38:34.227Z,98964.31
2023-02-16T11:43:38.900Z,98960.50
2023-02-16T11:48:40.891Z,98951.16
2023-02-16T11:53:44.497Z,98941.38
2023-02-16T11:59:04.203Z,98937.88
2023-02-16T12:04:21.206Z,98931.50
2023-02-16T12:09:43.324Z,98934.38
2023-02-16T12:15:06.981Z,98925.13
2023-02-16T12:20:33.858Z,98928.63
2023-02-16T12:25:50.625Z,98927.47
2023-02-16T12:30:58.482Z,98910.38
2023-02-16T12:36:05.007Z,98913.22
2023-02-16T12:41:27.586Z,98910.94
2023-02-16T12:46:36.961Z,98898.75
2023-02-16T12:51:45.761Z,98898.97
2023-02-16T12:57:06.897Z,98892.22
2023-02-16T13:02:40.646Z,98880.63
2023-02-16T13:07:47.165Z,98883.31
2023-02-16T13:13:02.808Z,98883.50
2023-02-16T13:18:16.515Z,98875.66
2023-02-16T13:23:30.770Z,98879.56
2023-02-16T13:28:59.637Z,98878.03
2023-02-16T13:34:38.395Z,98865.84
2023-02-16T13:39:49.096Z,98876.50
2023-02-16T13:45:17.102Z,98872.59
2023-02-16T13:50:24.945Z,98861.84
2023-02-16T13:55:31.345Z,98851.03
2023-02-16T14:00:36.745Z,98859.81
2023-02-16T14:05:41.379Z,98858.06
2023-02-16T14:10:56.110Z,98855.72
2023-02-16T14:16:06.210Z,98855.34
2023-02-16T14:21:27.590Z,98854.31
2023-02-16T14:26:31.889Z,98855.47
2023-02-16T14:31:42.495Z,98856.59
2023-02-16T14:37:27.842Z,98848.88
2023-02-16T14:42:32.737Z,98858.78
2023-02-16T14:47:56.781Z,98860.31
2023-02-16T14:53:25.732Z,98879.16
2023-02-16T14:58:51.006Z,98870.03
2023-02-16T15:03:55.557Z,98885.22
2023-02-16T15:09:00.365Z,98883.78
2023-02-16T15:14:06.051Z,98885.69
2023-02-16T15:19:13.424Z,98879.84
2023-02-16T15:24:24.006Z,98881.97
2023-02-16T15:29:27.328Z,98874.97
2023-02-16T15:34:35.322Z,98874.56
2023-02-16T15:39:49.826Z,98883.97
2023-02-16T15:44:59.141Z,98870.53
2023-02-16T15:50:13.155Z,98867.00
2023-02-16T15:55:15.162Z,98867.28
2023-02-16T16:00:21.356Z,98864.63
2023-02-16T16:05:29.748Z,98861.78
2023-02-16T16:10:36.565Z,98862.94
2023-02-16T16:15:44.340Z,98858.38
2023-02-16T16:20:46.192Z,98865.94
2023-02-16T16:25:48.966Z,98863.00
2023-02-16T16:31:13.686Z,98856.81
2023-02-16T16:36:15.736Z,98862.50
2023-02-16T16:41:27.537Z,98866.81
2023-02-16T16:46:30.152Z,98859.88
2023-02-16T16:51:31.907Z,98868.94
2023-02-16T16:56:39.621Z,98859.47
2023-02-16T17:01:42.033Z,98867.66
2023-02-16T17:06:43.969Z,98869.50
2023-02-16T17:11:45.782Z,98856.84
2023-02-16T17:16:53.186Z,98857.66
2023-02-16T17:21:55.152Z,98867.28
2023-02-16T17:26:57.302Z,98861.19
2023-02-16T17:31:59.760Z,98855.50
2023-02-16T17:37:05.470Z,98859.81
2023-02-16T17:42:11.761Z,98850.75
2023-02-16T17:47:15.672Z,98851.22
2023-02-16T17:52:17.529Z,98859.13
2023-02-16T17:57:19.356Z,98838.53
2023-02-16T18:02:21.157Z,98847.47
2023-02-16T18:07:23.167Z,98834.13
2023-02-16T18:12:26.827Z,98838.78
2023-02-16T18:17:29.937Z,98846.22
2023-02-16T18:22:32.822Z,98844.56
2023-02-16T18:27:35.455Z,98844.91
2023-02-16T18:32:37.776Z,98849.44
2023-02-16T18:37:40.260Z,98851.69
2023-02-16T18:42:42.368Z,98849.44
2023-02-16T18:47:45.616Z,98842.16
2023-02-16T18:52:47.745Z,98857.91
2023-02-16T18:57:49.571Z,98856.66
2023-02-16T19:02:51.499Z,98841.50
2023-02-16T19:07:53.731Z,98855.06
2023-02-16T19:12:55.620Z,98855.63
2023-02-16T19:17:57.432Z,98871.00
2023-02-16T19:22:59.667Z,98860.72
2023-02-16T19:28:01.548Z,98876.06
2023-02-16T19:33:03.461Z,98871.97
2023-02-16T19:38:05.305Z,98858.41
2023-02-16T19:43:07.420Z,98861.91
2023-02-16T19:48:09.244Z,98864.53
2023-02-16T19:53:11.498Z,98844.16
2023-02-16T19:58:13.952Z,98854.69
2023-02-16T20:03:16.935Z,98853.75
2023-02-16T20:08:18.776Z,98852.75
2023-02-16T20:13:21.452Z,98849.13
2023-02-16T20:18:23.311Z,98857.25
2023-02-16T20:23:25.148Z,98863.34
2023-02-16T20:28:27.690Z,98858.63
2023-02-16T20:33:29.585Z,98849.22
2023-02-16T20:38:31.380Z,98856.56
2023-02-16T20:43:34.560Z,98855.44
2023-02-16T20:48:36.482Z,98861.13
2023-02-16T20:53:38.546Z,98854.19
2023-02-16T20:58:56.800Z,98859.63
2023-02-16T21:03:59.989Z,98856.47
2023-02-16T21:09:01.964Z,98856.59
2023-02-16T21:14:10.696Z,98845.88
2023-02-16T21:19:22.429Z,98846.78
2023-02-16T21:24:24.580Z,98831.53
2023-02-16T21:29:26.431Z,98842.28
2023-02-16T21:34:28.282Z,98836.84
2023-02-16T21:39:49.185Z,98817.53
2023-02-16T21:45:11.034Z,98818.91
2023-02-16T21:50:12.878Z,98817.88
2023-02-16T21:55:33.379Z,98817.09
2023-02-16T22:00:36.136Z,98803.84
2023-02-16T22:05:38.225Z,98799.47
2023-02-16T22:10:41.243Z,98796.88
2023-02-16T22:15:43.053Z,98801.50
2023-02-16T22:20:45.101Z,98796.31
2023-02-16T22:25:46.949Z,98778.13
2023-02-16T22:30:48.895Z,98787.03
2023-02-16T22:35:50.890Z,98786.25
2023-02-16T22:40:52.729Z,98780.03
2023-02-16T22:45:54.567Z,98782.06
2023-02-16T22:51:00.639Z,98777.44
2023-02-16T22:56:06.260Z,98772.78
2023-02-16T23:01:19.247Z,98763.53
2023-02-16T23:06:23.556Z,98755.03
2023-02-16T23:11:25.737Z,98752.78
2023-02-16T23:16:28.187Z,98736.41
2023-02-16T23:21:32.717Z,98736.28
2023-02-16T23:26:34.573Z,98740.94
2023-02-16T23:31:38.841Z,98728.28
2023-02-16T23:36:41.282Z,98719.69
2023-02-16T23:41:43.669Z,98719.59
2023-02-16T23:46:45.462Z,98714.06
2023-02-16T23:51:47.316Z,98714.06
2023-02-16T23:56:50.210Z,98706.84
